Time;durP1;ratioP1;P1;durP2;ratioP2;P2;SDS_P1;SDS_P2;PMS_P1;PMS_P2;Temp;Humidity;BMP_temperature;BMP_pressure;BME280_temperature;BME280_humidity;BME280_pressure;Samples;Min_cycle;Max_cycle;Signal;HPM_P1;HPM_P2
2022/06/28 00:01:50;;;;;;;3.97;3.67;;;;;;;;;;5047721;28;20219;-82
2022/06/28 00:04:17;;;;;;;4.55;4.15;;;;;;;;;;5046745;28;20527;-81
2022/06/28 00:06:45;;;;;;;4.57;4.22;;;;;;;;;;5059676;28;20597;-82
2022/06/28 00:09:14;;;;;;;4.80;4.10;;;;;;;;;;5045922;28;20187;-81
2022/06/28 00:11:41;;;;;;;4.05;3.75;;;;;;;;;;5041961;28;20204;-81
2022/06/28 00:16:04;;;;;;;3.95;3.47;;;;;;;;;;5055364;28;20585;-82
2022/06/28 00:16:54;;;;;;;3.97;3.65;;;;;;;;;;5045361;28;20666;-81
2022/06/28 00:19:21;;;;;;;5.60;4.55;;;;;;;;;;5053106;28;20206;-82
2022/06/28 00:21:50;;;;;;;5.15;4.60;;;;;;;;;;5054447;28;20225;-81
2022/06/28 00:24:17;;;;;;;4.93;3.45;;;;;;;;;;5055163;28;20650;-81
2022/06/28 00:26:45;;;;;;;3.72;3.13;;;;;;;;;;5047276;28;20568;-81
2022/06/28 00:29:13;;;;;;;4.63;4.25;;;;;;;;;;5044182;28;20213;-81
2022/06/28 00:31:40;;;;;;;4.15;3.80;;;;;;;;;;5043425;28;20199;-81
2022/06/28 00:34:07;;;;;;;4.55;4.15;;;;;;;;;;5051403;28;20215;-80
2022/06/28 00:36:34;;;;;;;3.70;3.40;;;;;;;;;;5048729;28;20191;-80
2022/06/28 00:39:02;;;;;;;5.65;3.22;;;;;;;;;;5061976;28;20213;-81
2022/06/28 00:41:30;;;;;;;3.90;3.60;;;;;;;;;;5043177;28;20202;-80
2022/06/28 00:43:57;;;;;;;3.30;3.10;;;;;;;;;;5048453;28;20230;-80
2022/06/28 00:46:24;;;;;;;3.72;3.35;;;;;;;;;;5052848;28;20638;-82
2022/06/28 00:48:51;;;;;;;3.35;3.05;;;;;;;;;;5048323;28;20195;-80
2022/06/28 00:51:18;;;;;;;3.35;3.05;;;;;;;;;;5051759;28;20252;-79
2022/06/28 00:53:46;;;;;;;5.03;3.85;;;;;;;;;;5055112;28;20211;-80
2022/06/28 00:56:14;;;;;;;4.07;3.08;;;;;;;;;;5044579;28;20554;-81
2022/06/28 00:58:41;;;;;;;3.40;3.20;;;;;;;;;;5038812;28;20206;-81
2022/06/28 01:01:08;;;;;;;3.90;3.60;;;;;;;;;;5041630;28;20548;-82
2022/06/28 01:03:35;;;;;;;3.75;3.45;;;;;;;;;;5042508;28;20211;-82
2022/06/28 01:06:02;;;;;;;4.10;3.10;;;;;;;;;;5047432;28;20190;-81
2022/06/28 01:08:30;;;;;;;3.15;2.95;;;;;;;;;;5044693;28;20211;-79
2022/06/28 01:10:57;;;;;;;3.70;3.40;;;;;;;;;;5051590;28;20206;-81
2022/06/28 01:13:25;;;;;;;3.83;3.53;;;;;;;;;;5049375;28;20223;-82
2022/06/28 01:15:53;;;;;;;3.05;2.85;;;;;;;;;;5054103;28;20202;-82
2022/06/28 01:18:20;;;;;;;5.50;3.25;;;;;;;;;;5058205;28;20715;-82
2022/06/28 01:20:47;;;;;;;4.03;3.53;;;;;;;;;;5045653;28;20261;-82
2022/06/28 01:23:19;;;;;;;4.75;3.00;;;;;;;;;;5048123;28;20195;-82
2022/06/28 01:25:46;;;;;;;3.97;3.38;;;;;;;;;;5050140;28;20282;-81
2022/06/28 01:28:13;;;;;;;3.53;3.25;;;;;;;;;;5046761;28;20207;-82
2022/06/28 01:30:40;;;;;;;4.78;2.95;;;;;;;;;;5046295;28;20302;-82
2022/06/28 01:33:08;;;;;;;3.50;3.20;;;;;;;;;;5047844;28;20213;-81
2022/06/28 01:35:35;;;;;;;3.30;3.00;;;;;;;;;;5047503;28;20195;-81
2022/06/28 01:38:03;;;;;;;2.60;2.40;;;;;;;;;;5060631;28;20206;-81
2022/06/28 01:40:31;;;;;;;5.38;3.08;;;;;;;;;;5048143;28;20558;-82
2022/06/28 01:42:58;;;;;;;3.90;3.40;;;;;;;;;;5051918;28;20673;-80
2022/06/28 01:45:25;;;;;;;3.10;2.90;;;;;;;;;;5042903;28;20620;-80
2022/06/28 01:47:53;;;;;;;3.05;2.78;;;;;;;;;;5054985;28;20203;-80
2022/06/28 01:50:20;;;;;;;2.65;2.45;;;;;;;;;;5042304;28;20413;-81
2022/06/28 01:52:47;;;;;;;3.13;2.83;;;;;;;;;;5046749;28;20203;-81
2022/06/28 01:55:14;;;;;;;3.03;2.60;;;;;;;;;;5040117;28;20215;-81
2022/06/28 01:57:43;;;;;;;2.97;2.78;;;;;;;;;;5047762;28;20226;-81
2022/06/28 02:00:10;;;;;;;3.35;3.05;;;;;;;;;;5047677;28;21524;-81
2022/06/28 02:02:37;;;;;;;2.90;2.70;;;;;;;;;;5046253;28;20226;-81
2022/06/28 02:05:04;;;;;;;2.55;2.35;;;;;;;;;;5043008;28;20198;-81
2022/06/28 02:07:31;;;;;;;2.75;2.25;;;;;;;;;;5047919;28;20645;-81
2022/06/28 02:09:59;;;;;;;3.20;2.90;;;;;;;;;;5043600;28;20191;-81
2022/06/28 02:12:28;;;;;;;2.75;2.55;;;;;;;;;;5044757;28;20226;-82
2022/06/28 02:14:56;;;;;;;3.00;2.70;;;;;;;;;;5044473;28;20226;-82
2022/06/28 02:17:23;;;;;;;2.78;2.38;;;;;;;;;;5044427;28;20191;-82
2022/06/28 02:19:51;;;;;;;3.10;2.80;;;;;;;;;;5037503;28;20200;-80
2022/06/28 02:22:18;;;;;;;4.70;2.42;;;;;;;;;;5061845;28;20198;-79
2022/06/28 02:24:45;;;;;;;2.53;2.00;;;;;;;;;;5041669;28;20285;-80
2022/06/28 02:27:12;;;;;;;4.75;3.15;;;21.50;99.90;;;;;;5047672;28;20245;-80
2022/06/28 02:29:39;;;;;;;2.30;2.10;;;18.60;99.90;;;;;;5042734;28;20628;-80
2022/06/28 02:32:08;;;;;;;2.90;2.55;;;18.50;99.90;;;;;;5041380;28;20577;-80
2022/06/28 02:40:24;;;;;;;3.13;2.75;;;18.50;99.90;;;;;;5033895;28;20320;-81
2022/06/28 02:42:52;;;;;;;2.45;2.25;;;18.50;99.90;;;;;;5049719;28;20206;-80
2022/06/28 02:45:19;;;;;;;3.80;2.58;;;18.50;99.90;;;;;;5043855;28;20248;-76
2022/06/28 02:47:47;;;;;;;2.70;2.50;;;18.40;99.90;;;;;;5049539;28;20248;-76
2022/06/28 02:50:14;;;;;;;2.60;2.22;;;18.40;99.90;;;;;;5036766;28;20493;-75
2022/06/28 02:52:41;;;;;;;2.70;2.50;;;18.40;99.90;;;;;;5048106;28;20245;-77
2022/06/28 02:55:09;;;;;;;2.65;2.45;;;18.40;99.90;;;;;;5048544;28;20219;-78
2022/06/28 02:57:37;;;;;;;6.60;2.53;;;18.40;99.90;;;;;;5045752;28;20206;-77
2022/06/28 03:00:07;;;;;;;2.05;1.85;;;18.40;99.90;;;;;;5038123;28;20282;-77
2022/06/28 03:02:35;;;;;;;2.40;2.20;;;;;;;;;;5046031;28;20219;-78
2022/06/28 03:05:04;;;;;;;3.30;2.70;;;;;;;;;;5037374;28;20276;-78
2022/06/28 03:07:31;;;;;;;3.10;2.58;;;;;;;;;;5047502;28;20215;-79
2022/06/28 03:09:58;;;;;;;3.03;2.13;;;;;;;;;;5041728;28;20198;-78
2022/06/28 03:12:25;;;;;;;2.00;1.90;;;;;;;;;;5050557;28;20204;-77
2022/06/28 03:14:53;;;;;;;3.08;2.88;;;;;;;;;;5046722;28;20355;-78
2022/06/28 03:17:20;;;;;;;2.78;2.58;;;;;;;;;;5052058;28;20664;-80
2022/06/28 03:19:47;;;;;;;2.60;2.40;;;;;;;;;;5049850;28;20519;-78
2022/06/28 03:22:15;;;;;;;2.40;2.20;;;;;;;;;;5057307;28;20586;-78
2022/06/28 03:24:43;;;;;;;2.40;2.20;;;;;;;;;;5050954;28;20199;-77
2022/06/28 03:27:10;;;;;;;2.63;2.40;;;;;;;;;;5043339;28;20200;-78
2022/06/28 03:29:37;;;;;;;2.58;2.38;;;;;;;;;;5054177;28;20210;-78
2022/06/28 03:32:04;;;;;;;2.10;1.92;;;;;;;;;;5048672;28;20654;-78
2022/06/28 03:34:31;;;;;;;2.65;2.45;;;;;;;;;;5039726;28;20203;-78
2022/06/28 03:36:58;;;;;;;3.55;2.00;;;;;;;;;;5058038;28;20254;-78
2022/06/28 03:39:27;;;;;;;3.20;2.45;;;;;;;;;;5057584;28;20289;-78
2022/06/28 03:41:54;;;;;;;4.10;2.70;;;;;;;;;;5057432;28;20199;-77
2022/06/28 03:44:21;;;;;;;3.17;2.50;;;;;;;;;;5039642;28;20187;-77
2022/06/28 03:46:48;;;;;;;2.20;2.00;;;;;;;;;;5053282;28;20199;-77
2022/06/28 03:49:15;;;;;;;2.30;2.10;;;;;;;;;;5047147;28;20554;-77
2022/06/28 03:51:42;;;;;;;2.78;2.58;;;;;;;;;;5056105;28;20694;-79
2022/06/28 03:54:09;;;;;;;2.15;2.03;;;;;;;;;;5051411;28;20195;-77
2022/06/28 03:56:37;;;;;;;2.90;1.88;;;;;;;;;;5054372;28;20558;-76
2022/06/28 03:59:04;;;;;;;2.40;2.20;;;;;;;;;;5052303;28;20616;-78
2022/06/28 04:01:32;;;;;;;4.22;2.10;;;;;;;;;;5049785;28;20280;-77
2022/06/28 04:03:59;;;;;;;2.42;2.22;;;;;;;;;;5056922;28;20203;-80
2022/06/28 04:06:26;;;;;;;2.45;2.25;;;;;;;;;;5051840;28;20206;-77
2022/06/28 04:08:53;;;;;;;2.22;2.03;;;;;;;;;;5051966;28;20590;-77
2022/06/28 04:11:21;;;;;;;1.88;1.77;;;;;;;;;;5053392;28;20195;-77
2022/06/28 04:13:50;;;;;;;2.50;2.30;;;;;;;;;;5051145;28;20665;-77
2022/06/28 04:16:18;;;;;;;3.00;2.80;;;;;;;;;;5048924;28;20215;-79
2022/06/28 04:18:45;;;;;;;2.30;2.10;;;;;;;;;;5045567;28;20207;-77
2022/06/28 04:21:13;;;;;;;3.10;2.10;;;;;;;;;;5052337;28;20654;-77
2022/06/28 04:23:40;;;;;;;5.72;2.42;;;;;;;;;;5061084;28;20666;-78
2022/06/28 04:26:07;;;;;;;2.10;1.90;;;;;;;;;;5050348;28;20199;-78
2022/06/28 04:28:34;;;;;;;2.47;2.28;;;;;;;;;;5036997;28;20226;-78
2022/06/28 04:31:03;;;;;;;2.05;1.85;;;;;;;;;;5044452;28;20205;-80
2022/06/28 04:33:30;;;;;;;2.45;2.05;;;;;;;;;;5049387;28;20210;-78
2022/06/28 04:35:57;;;;;;;2.50;2.30;;;;;;;;;;5057596;28;20218;-77
2022/06/28 04:38:24;;;;;;;2.63;2.40;;;;;;;;;;5051856;28;20199;-78
2022/06/28 04:40:51;;;;;;;2.75;1.85;;;;;;;;;;5050809;28;20195;-77
2022/06/28 04:43:18;;;;;;;2.70;2.50;;;;;;;;;;5044494;28;20215;-78
2022/06/28 04:45:45;;;;;;;4.40;2.10;;;;;;;;;;5049254;28;20199;-78
2022/06/28 04:48:14;;;;;;;4.25;2.28;;;;;;;;;;5052270;28;20580;-79
2022/06/28 04:50:41;;;;;;;3.05;2.17;;;;;;;;;;5056546;28;20293;-76
2022/06/28 04:53:08;;;;;;;2.40;2.25;;;;;;;;;;5045486;28;20333;-79
2022/06/28 04:55:35;;;;;;;2.13;1.80;;;;;;;;;;5043972;28;20210;-78
2022/06/28 04:58:02;;;;;;;2.60;2.22;;;;;;;;;;5043275;28;20195;-76
2022/06/28 05:00:29;;;;;;;2.20;2.00;;;;;;;;;;5043802;28;20203;-78
2022/06/28 05:02:57;;;;;;;2.80;2.10;;;;;;;;;;5051064;28;20218;-79
2022/06/28 05:05:25;;;;;;;2.30;2.10;;;;;;;;;;5044417;28;20471;-77
2022/06/28 05:07:52;;;;;;;1.73;1.63;;;;;;;;;;5055393;28;20203;-79
2022/06/28 05:10:19;;;;;;;2.20;2.00;;;;;;;;;;5051262;28;20697;-77
2022/06/28 05:12:46;;;;;;;1.55;1.42;;;;;;;;;;5043407;28;20617;-79
2022/06/28 05:15:13;;;;;;;2.13;1.92;;;;;;;;;;5045189;28;20218;-77
2022/06/28 05:17:41;;;;;;;2.08;1.85;;;;;;;;;;5056939;28;20187;-77
2022/06/28 05:20:09;;;;;;;2.63;2.10;;;;;;;;;;5045041;28;20232;-77
2022/06/28 05:22:37;;;;;;;2.28;2.00;;;;;;;;;;5061886;28;20198;-76
2022/06/28 05:25:05;;;;;;;2.65;2.20;;;;;;;;;;5050251;28;20195;-79
2022/06/28 05:27:32;;;;;;;3.30;2.25;;;;;;;;;;5053443;28;20188;-77
2022/06/28 05:29:59;;;;;;;2.10;1.90;;;;;;;;;;5046764;28;20577;-79
2022/06/28 05:32:26;;;;;;;2.47;2.28;;;;;;;;;;5050190;28;20684;-77
2022/06/28 05:34:53;;;;;;;2.50;1.88;;;;;;;;;;5043531;28;20215;-79
2022/06/28 05:37:20;;;;;;;2.28;2.00;;;;;;;;;;5046297;28;20191;-84
2022/06/28 05:39:48;;;;;;;2.47;1.60;;;;;;;;;;5053018;28;20594;-83
2022/06/28 05:42:16;;;;;;;1.55;1.45;;;;;;;;;;5063206;28;20202;-83
2022/06/28 05:44:44;;;;;;;1.98;1.50;;;;;;;;;;5055392;28;20565;-84
2022/06/28 05:47:11;;;;;;;2.28;1.50;;;;;;;;;;5040983;28;20198;-84
2022/06/28 05:49:38;;;;;;;1.90;1.60;;;;;;;;;;5050350;28;20260;-83
2022/06/28 05:52:06;;;;;;;3.33;2.08;;;;;;;;;;5050687;28;20256;-83
2022/06/28 05:54:33;;;;;;;1.80;1.30;;;;;;;;;;5052089;28;20201;-83
2022/06/28 05:57:02;;;;;;;2.30;1.60;;;;;;;;;;5047031;28;20195;-84
2022/06/28 05:59:31;;;;;;;2.90;1.77;;;;;;;;;;5051237;28;20212;-84
2022/06/28 06:01:58;;;;;;;1.52;1.35;;;;;;;;;;5051996;28;20706;-83
2022/06/28 06:04:25;;;;;;;2.42;1.42;;;;;;;;;;5035476;28;20543;-81
2022/06/28 06:06:52;;;;;;;1.77;1.42;;;;;;;;;;5043500;28;20644;-82
2022/06/28 06:09:20;;;;;;;1.60;1.40;;;;;;;;;;5051719;28;20223;-81
2022/06/28 06:11:47;;;;;;;1.60;1.45;;;;;;;;;;5052434;28;20258;-81
2022/06/28 06:14:16;;;;;;;1.80;1.50;;;;;;;;;;5054727;28;20200;-82
2022/06/28 06:16:43;;;;;;;2.70;1.90;;;;;;;;;;5039125;28;20261;-80
2022/06/28 06:19:10;;;;;;;1.40;1.30;;;;;;;;;;5040849;28;20198;-82
2022/06/28 06:21:37;;;;;;;1.65;1.55;;;;;;;;;;5055657;28;20197;-81
2022/06/28 06:24:04;;;;;;;1.58;1.10;;;;;;;;;;5058886;28;20693;-82
2022/06/28 06:26:33;;;;;;;2.08;1.38;;;;;;;;;;5047354;28;20202;-82
2022/06/28 06:29:00;;;;;;;1.20;1.10;;;;;;;;;;5048226;28;20233;-81
2022/06/28 06:31:28;;;;;;;1.70;1.40;;;;;;;;;;5043789;28;20206;-81
2022/06/28 06:33:55;;;;;;;1.85;1.50;;;;;;;;;;5042351;28;20198;-82
2022/06/28 06:36:22;;;;;;;1.90;1.65;;;;;;;;;;5051036;28;20221;-82
2022/06/28 06:38:50;;;;;;;3.58;1.42;;;;;;;;;;5048447;28;20711;-82
2022/06/28 06:41:17;;;;;;;1.50;1.20;;;;;;;;;;5060717;28;20200;-82
2022/06/28 06:43:44;;;;;;;2.58;1.50;;;;;;;;;;5070554;28;20202;-84
2022/06/28 06:46:11;;;;;;;1.50;1.23;;;;;;;;;;5052643;28;20225;-82
2022/06/28 06:48:40;;;;;;;2.40;1.00;;;;;;;;;;5065649;28;20448;-83
2022/06/28 06:51:07;;;;;;;1.50;1.20;;;;;;;;;;5056290;28;20452;-83
2022/06/28 06:53:34;;;;;;;1.67;1.37;;;;;;;;;;5061664;28;20465;-83
2022/06/28 06:56:01;;;;;;;1.60;1.20;;;;;;;;;;5060868;28;20483;-82
2022/06/28 06:58:28;;;;;;;1.40;1.30;;;;;;;;;;5062499;28;20476;-83
2022/06/28 07:00:57;;;;;;;1.63;1.17;;;;;;;;;;5060521;28;20551;-82
2022/06/28 07:03:24;;;;;;;1.60;1.50;;;;;;;;;;5053215;28;20473;-82
2022/06/28 07:05:53;;;;;;;1.23;1.10;;;;;;;;;;5058780;28;20461;-82
2022/06/28 07:08:20;;;;;;;1.93;1.20;;;;;;;;;;5051496;28;20457;-80
2022/06/28 07:10:47;;;;;;;2.30;1.40;;;;;;;;;;5054750;28;20442;-81
2022/06/28 07:13:14;;;;;;;1.40;1.20;;;;;;;;;;5052235;28;20461;-81
2022/06/28 07:15:42;;;;;;;1.50;1.10;;;;;;;;;;5049640;28;20474;-81
2022/06/28 07:18:09;;;;;;;1.53;1.43;;;;;;;;;;5060674;28;20487;-81
2022/06/28 07:20:36;;;;;;;1.23;1.13;;;;;;;;;;5047379;28;20487;-81
2022/06/28 07:23:04;;;;;;;1.43;0.97;;;;;;;;;;5051536;28;20519;-82
2022/06/28 07:25:32;;;;;;;4.70;1.33;;;;;;;;;;5061088;28;20468;-80
2022/06/28 07:27:59;;;;;;;1.00;0.80;;;;;;;;;;5049568;28;20958;-81
2022/06/28 07:30:26;;;;;;;3.33;1.40;;;;;;;;;;5050098;28;20469;-81
2022/06/28 07:32:53;;;;;;;1.67;1.00;;;;;;;;;;5042869;28;20461;-84
2022/06/28 07:35:24;;;;;;;1.73;1.30;;;;;;;;;;5059854;28;20476;-80
2022/06/28 07:37:51;;;;;;;1.40;0.80;;;;;;;;;;5048293;28;20461;-79
2022/06/28 07:40:20;;;;;;;2.00;1.37;;;;;;;;;;5052734;28;20963;-84
2022/06/28 07:42:47;;;;;;;1.70;1.30;;;;;;;;;;5050867;28;20492;-80
2022/06/28 07:45:14;;;;;;;2.13;1.00;;;;;;;;;;5052323;28;20457;-81
2022/06/28 07:47:42;;;;;;;3.90;1.20;;;;;;;;;;5046461;28;20503;-80
2022/06/28 07:52:54;;;;;;;2.80;1.40;;;;;;;;;;5053049;28;20560;-81
2022/06/28 07:55:22;;;;;;;2.30;1.07;;;;;;;;;;5064694;28;20456;-81
2022/06/28 07:57:49;;;;;;;1.90;1.43;;;;;;;;;;5055458;28;20449;-81
2022/06/28 08:00:19;;;;;;;1.80;1.13;;;;;;;;;;5051923;28;20456;-81
2022/06/28 08:02:47;;;;;;;1.13;0.80;;;;;;;;;;5065936;28;20487;-80
2022/06/28 08:05:14;;;;;;;1.73;0.97;;;;;;;;;;5049059;28;20488;-80
2022/06/28 08:07:41;;;;;;;2.27;1.00;;;;;;;;;;5051002;28;20963;-80
2022/06/28 08:10:09;;;;;;;2.40;1.40;;;;;;;;;;5051839;28;20468;-80
2022/06/28 08:12:38;;;;;;;2.10;1.07;;;;;;;;;;5049776;28;20464;-80
2022/06/28 08:15:06;;;;;;;1.67;0.90;;;;;;;;;;5045555;28;20817;-79
2022/06/28 08:17:33;;;;;;;1.77;0.93;;;;;;;;;;5045381;28;20481;-80
2022/06/28 08:20:00;;;;;;;1.63;1.03;;;;;;;;;;5049492;28;20503;-80
2022/06/28 08:22:27;;;;;;;2.13;1.00;;;;;;;;;;5050416;28;20452;-80
2022/06/28 08:24:54;;;;;;;1.73;1.10;;;;;;;;;;5048525;28;20459;-80
2022/06/28 08:27:21;;;;;;;1.20;0.90;;;;;;;;;;5056968;28;20456;-80
2022/06/28 08:29:50;;;;;;;1.70;1.10;;;;;;;;;;5053432;28;20997;-80
2022/06/28 08:32:20;;;;;;;1.20;0.80;;;;;;;;;;5044713;28;20457;-80
2022/06/28 08:34:47;;;;;;;1.23;0.93;;;;;;;;;;5053369;28;20831;-79
2022/06/28 08:37:15;;;;;;;2.13;0.90;;;;;;;;;;5050150;28;20500;-79
2022/06/28 08:39:42;;;;;;;1.70;1.20;;;;;;;;;;5048521;28;20901;-80
2022/06/28 08:42:11;;;;;;;1.43;0.87;;;;;;;;;;5056843;28;20448;-79
2022/06/28 08:44:38;;;;;;;1.83;1.00;;;;;;;;;;5058651;28;20820;-80
2022/06/28 08:47:08;;;;;;;1.23;1.00;;;;;;;;;;5046639;28;20453;-80
2022/06/28 08:49:37;;;;;;;3.17;1.10;;;;;;;;;;5050630;28;20967;-79
2022/06/28 08:52:05;;;;;;;2.47;0.90;;;;;;;;;;5040465;28;20497;-79
2022/06/28 08:54:32;;;;;;;1.33;0.80;;;;;;;;;;5034633;28;20570;-80
2022/06/28 08:56:59;;;;;;;1.50;0.90;;;;;;;;;;5045735;28;20477;-79
2022/06/28 08:59:27;;;;;;;1.20;0.90;;;;;;;;;;5049535;28;20453;-79
2022/06/28 09:01:54;;;;;;;1.37;0.70;;;;;;;;;;5044332;28;20987;-80
2022/06/28 09:04:23;;;;;;;1.63;1.00;;;;;;;;;;5055317;28;20870;-80
2022/06/28 09:06:50;;;;;;;2.53;0.97;;;;;;;;;;5058872;28;20453;-81
2022/06/28 09:09:17;;;;;;;2.40;1.33;;;;;;;;;;5050755;28;20461;-82
2022/06/28 09:11:45;;;;;;;1.60;0.90;;;;;;;;;;5051961;28;20453;-82
2022/06/28 09:14:21;;;;;;;1.87;0.93;;;;;;;;;;5058929;28;20460;-82
2022/06/28 09:16:48;;;;;;;3.10;1.27;;;;;;;;;;5043265;28;21182;-81
2022/06/28 09:19:16;;;;;;;1.10;0.80;;;;;;;;;;5053758;28;20469;-81
2022/06/28 09:21:46;;;;;;;1.70;1.03;;;;;;;;;;5046959;28;20457;-81
2022/06/28 09:24:23;;;;;;;0.93;0.77;;;;;;;;;;5051153;28;20801;-83
2022/06/28 09:26:52;;;;;;;2.90;1.30;;;;;;;;;;5047646;28;21070;-82
2022/06/28 09:29:19;;;;;;;1.10;0.80;;;;;;;;;;5053331;28;20492;-82
2022/06/28 09:31:47;;;;;;;1.47;1.00;;;;;;;;;;5046257;28;20465;-81
2022/06/28 09:34:14;;;;;;;2.33;1.10;;;;;;;;;;5054791;28;20458;-81
2022/06/28 09:36:41;;;;;;;2.63;1.20;;;;;;;;;;5047276;28;20481;-81
2022/06/28 09:39:18;;;;;;;1.40;0.90;;;;;;;;;;5036871;28;20456;-81
2022/06/28 09:41:46;;;;;;;1.00;0.80;;;;;;;;;;5039529;28;20453;-80
2022/06/28 09:44:13;;;;;;;1.30;0.90;;;;;;;;;;5058182;28;20484;-82
2022/06/28 09:46:40;;;;;;;1.57;1.03;;;;;;;;;;5041937;28;20470;-81
2022/06/28 09:49:09;;;;;;;2.73;1.00;;;;;;;;;;5044181;28;20456;-82
2022/06/28 09:51:37;;;;;;;1.30;0.97;;;;;;;;;;5041508;28;20879;-82
2022/06/28 09:54:06;;;;;;;1.00;0.77;;;;;;;;;;5042049;28;20462;-81
2022/06/28 09:56:36;;;;;;;1.97;1.00;;;;;;;;;;5044781;28;20481;-81
2022/06/28 09:59:04;;;;;;;1.20;0.87;;;;;;;;;;5045041;28;20466;-81
2022/06/28 10:01:31;;;;;;;3.27;1.00;;;;;;;;;;5044746;28;21054;-81
2022/06/28 10:03:59;;;;;;;1.30;0.90;;;;;;;;;;5051120;28;20467;-81
2022/06/28 10:06:26;;;;;;;2.20;1.27;;;;;;;;;;5044531;28;20449;-82
2022/06/28 10:08:53;;;;;;;1.10;0.90;;;;;;;;;;5045968;28;20528;-81
2022/06/28 10:11:21;;;;;;;1.60;1.10;;;;;;;;;;5043676;28;20914;-80
2022/06/28 10:16:44;;;;;;;2.80;1.20;;;;;;;;;;5043715;28;20484;-80
2022/06/28 10:19:12;;;;;;;0.97;0.73;;;;;;;;;;5040661;28;20472;-81
2022/06/28 10:21:43;;;;;;;1.33;0.90;;;;;;;;;;5041920;28;20591;-80
2022/06/28 10:24:10;;;;;;;1.90;0.93;;;;;;;;;;5060512;28;21026;-81
2022/06/28 10:26:37;;;;;;;1.57;0.93;;;;;;;;;;5063030;28;20498;-81
2022/06/28 10:29:07;;;;;;;2.30;1.10;;;;;;;;;;5048367;28;20824;-81
2022/06/28 10:31:36;;;;;;;1.63;0.90;;;;;;;;;;5045094;28;20514;-81
2022/06/28 10:34:04;;;;;;;1.87;1.10;;;;;;;;;;5058846;28;20452;-82
2022/06/28 10:36:33;;;;;;;1.20;0.90;;;;;;;;;;5042647;28;20474;-81
2022/06/28 10:39:15;;;;;;;1.20;0.87;;;;;;;;;;5045255;28;20932;-80
2022/06/28 10:41:43;;;;;;;2.57;0.90;;;;;;;;;;5043658;28;20496;-81
2022/06/28 10:44:12;;;;;;;1.20;1.00;;;;;;;;;;5052612;28;20941;-81
2022/06/28 10:46:39;;;;;;;1.20;0.80;;;;;;;;;;5042396;28;20465;-80
2022/06/28 10:49:08;;;;;;;1.40;0.90;;;;;;;;;;5047663;28;20446;-82
2022/06/28 10:51:36;;;;;;;1.63;1.00;;;;;;;;;;5044718;28;20477;-81
2022/06/28 10:54:06;;;;;;;1.97;1.43;;;;;;;;;;5048220;28;20460;-81
2022/06/28 10:56:36;;;;;;;4.10;1.30;;;;;;;;;;5048635;28;20478;-81
2022/06/28 10:59:05;;;;;;;4.10;1.30;;;;;;;;;;5047528;28;20430;-80
2022/06/28 11:01:51;;;;;;;1.20;1.00;;;;;;;;;;5046629;28;20975;-82
2022/06/28 11:04:25;;;;;;;1.60;0.90;;;;;;;;;;5041588;28;20457;-80
2022/06/28 11:06:53;;;;;;;1.87;0.90;;;;;;;;;;5037910;28;20899;-81
2022/06/28 11:09:25;;;;;;;1.43;0.93;;;;;;;;;;5040824;28;20501;-81
2022/06/28 11:12:08;;;;;;;1.30;0.80;;;;;;;;;;5045785;28;20453;-81
2022/06/28 11:14:36;;;;;;;1.33;1.20;;;;;;;;;;5038540;28;20469;-81
2022/06/28 11:17:14;;;;;;;1.20;0.90;;;;;;;;;;5045182;28;20492;-80
2022/06/28 11:19:50;;;;;;;1.70;1.00;;;;;;;;;;5046215;28;20547;-80
2022/06/28 11:22:19;;;;;;;1.43;0.83;;;;;;;;;;5053762;28;20983;-81
2022/06/28 11:24:46;;;;;;;1.90;0.80;;;;;;;;;;5055752;28;20547;-80
2022/06/28 11:27:22;;;;;;;1.27;0.90;;;;;;;;;;5054183;28;20507;-81
2022/06/28 11:29:53;;;;;;;1.60;0.90;;;;;;;;;;5047434;28;20464;-80
2022/06/28 11:32:22;;;;;;;1.57;0.93;;;;;;;;;;5051327;28;21019;-81
2022/06/28 11:34:58;;;;;;;1.87;0.90;;;;;;;;;;5055392;28;20488;-80
2022/06/28 11:37:25;;;;;;;1.20;0.90;;;;;;;;;;5044913;28;20483;-80
2022/06/28 11:39:53;;;;;;;1.40;0.90;;;;;;;;;;5049811;28;20986;-81
2022/06/28 11:42:20;;;;;;;3.83;1.00;;;;;;;;;;5052543;28;21029;-81
2022/06/28 11:44:47;;;;;;;3.20;1.33;;;;;;;;;;5052630;28;21016;-81
2022/06/28 11:47:16;;;;;;;2.33;1.07;;;;;;;;;;5043667;28;20544;-81
2022/06/28 11:49:43;;;;;;;1.73;0.90;;;;;;;;;;5052225;28;20887;-81
2022/06/28 11:52:16;;;;;;;1.17;0.80;;;;;;;;;;5046227;28;20469;-81
2022/06/28 11:54:45;;;;;;;1.40;1.00;;;;;;;;;;5048876;28;20442;-81
2022/06/28 11:57:15;;;;;;;1.40;0.80;;;;;;;;;;5049957;28;20513;-81
2022/06/28 11:59:52;;;;;;;1.20;0.80;;;;;;;;;;5045198;28;20587;-81
2022/06/28 12:02:34;;;;;;;1.10;0.80;;;;;;;;;;5040433;28;20476;-81
2022/06/28 12:05:01;;;;;;;1.20;1.00;;;;;;;;;;5042091;28;20939;-81
2022/06/28 12:07:35;;;;;;;1.83;0.93;;;;;;;;;;5047904;28;20454;-80
2022/06/28 12:10:02;;;;;;;2.43;1.00;;;;;;;;;;5051375;28;20434;-81
2022/06/28 12:12:29;;;;;;;1.10;0.80;;;;;;;;;;5049579;28;20523;-81
2022/06/28 12:14:57;;;;;;;2.07;1.00;;;;;;;;;;5039554;28;20527;-81
2022/06/28 12:17:24;;;;;;;1.80;0.87;;;;;;;;;;5044201;28;20500;-81
2022/06/28 12:19:51;;;;;;;1.00;0.80;;;;;;;;;;5048837;28;20904;-79
2022/06/28 12:22:20;;;;;;;1.87;1.00;;;;;;;;;;5054573;28;20987;-80
2022/06/28 12:24:50;;;;;;;1.53;1.00;;;;;;;;;;5041463;28;20552;-81
2022/06/28 12:27:18;;;;;;;1.20;0.80;;;;;;;;;;5038289;28;20952;-81
2022/06/28 12:29:45;;;;;;;1.60;1.00;;;;;;;;;;5046498;28;20825;-81
2022/06/28 12:32:12;;;;;;;1.57;0.97;;;;;;;;;;5050432;28;20457;-81
2022/06/28 12:34:40;;;;;;;1.67;0.90;;;;;;;;;;5053792;28;20458;-81
2022/06/28 12:37:07;;;;;;;1.00;0.77;;;;;;;;;;5061239;28;20476;-81
2022/06/28 12:39:34;;;;;;;2.00;0.97;;;;;;;;;;5060244;28;20585;-81
2022/06/28 12:42:03;;;;;;;1.20;0.90;;;;;;;;;;5050455;28;20438;-79
2022/06/28 12:44:30;;;;;;;1.60;1.00;;;;;;;;;;5058566;28;20539;-80
2022/06/28 12:46:58;;;;;;;2.70;1.37;;;;;;;;;;5055451;28;20464;-81
2022/06/28 12:49:26;;;;;;;2.40;0.80;;;;;;;;;;5037904;28;20450;-81
2022/06/28 12:51:53;;;;;;;3.43;0.90;;;;;;;;;;5034113;28;20465;-81
2022/06/28 12:54:20;;;;;;;1.20;1.10;;;;;;;;;;5056960;28;21026;-81
2022/06/28 12:56:47;;;;;;;1.53;0.80;;;;;;;;;;5055994;28;20453;-80
2022/06/28 12:59:16;;;;;;;1.20;1.00;;;;;;;;;;5051360;28;20521;-81
2022/06/28 13:01:43;;;;;;;1.43;0.77;;;;;;;;;;5052364;28;20853;-81
2022/06/28 13:04:11;;;;;;;1.43;0.80;;;;;;;;;;5055249;28;20448;-80
2022/06/28 13:06:39;;;;;;;1.33;0.80;;;;;;;;;;5052503;28;20469;-82
2022/06/28 13:09:06;;;;;;;2.00;0.80;;;;;;;;;;5039767;28;20485;-81
2022/06/28 13:11:33;;;;;;;1.80;1.20;;;;;;;;;;5049611;28;20812;-81
2022/06/28 13:14:00;;;;;;;1.57;1.17;;;;;;;;;;5059176;28;20947;-81
2022/06/28 13:16:28;;;;;;;1.00;0.80;;;;;;;;;;5051133;28;20477;-81
2022/06/28 13:18:55;;;;;;;1.20;0.80;;;;;;;;;;5046066;28;20530;-82
2022/06/28 13:21:22;;;;;;;2.40;0.80;;;;;;;;;;5053022;28;20464;-81
2022/06/28 13:23:50;;;;;;;1.33;1.10;;;;;;;;;;5040233;28;21027;-81
2022/06/28 13:26:18;;;;;;;1.83;0.90;;;;;;;;;;5068668;28;20849;-81
2022/06/28 13:28:45;;;;;;;1.00;0.70;;;;;;;;;;5052122;28;20473;-81
2022/06/28 13:31:12;;;;;;;2.13;1.30;;;;;;;;;;5049151;28;20470;-81
2022/06/28 13:33:41;;;;;;;1.30;0.80;;;;;;;;;;5053961;28;20535;-81
2022/06/28 13:36:08;;;;;;;1.13;0.80;;;;;;;;;;5054627;28;20514;-80
2022/06/28 13:38:35;;;;;;;1.60;1.07;;;;;;;;;;5050930;28;20476;-81
2022/06/28 13:41:02;;;;;;;1.17;0.80;;;;;;;;;;5055197;28;20453;-80
2022/06/28 13:43:35;;;;;;;1.87;0.80;;;;;;;;;;5056632;28;20965;-80
2022/06/28 13:46:02;;;;;;;1.47;0.80;;;;;;;;;;5065712;28;20464;-81
2022/06/28 13:48:30;;;;;;;1.90;0.80;;;;;;;;;;5063456;28;20662;-81
2022/06/28 13:50:58;;;;;;;2.13;1.03;;;;;;;;;;5055235;28;20802;-81
2022/06/28 13:53:26;;;;;;;1.30;0.80;;;;;;;;;;5030425;28;20486;-81
2022/06/28 13:55:53;;;;;;;1.20;0.83;;;;;;;;;;5046893;28;20461;-82
2022/06/28 13:58:20;;;;;;;2.93;1.20;;;;;;;;;;5058871;28;20519;-82
2022/06/28 14:00:48;;;;;;;1.60;0.90;;;;;;;;;;5048909;28;20495;-81
2022/06/28 14:03:15;;;;;;;2.10;1.20;;;;;;;;;;5042010;28;20482;-82
2022/06/28 14:05:43;;;;;;;2.03;1.10;;;;;;;;;;5032859;28;21066;-82
2022/06/28 14:08:13;;;;;;;4.10;1.03;;;;;;;;;;5051238;28;20515;-82
2022/06/28 14:10:40;;;;;;;1.30;0.83;;;;;;;;;;5047880;28;20801;-80
2022/06/28 14:13:07;;;;;;;1.73;0.90;;;;;;;;;;5063207;28;20455;-83
2022/06/28 14:15:35;;;;;;;1.80;1.00;;;;;;;;;;5052678;28;20884;-82
2022/06/28 14:18:02;;;;;;;1.53;1.10;;;;;;;;;;5029329;28;20506;-82
2022/06/28 14:20:30;;;;;;;1.43;0.90;;;;;;;;;;5041830;28;20477;-80
2022/06/28 14:22:57;;;;;;;2.00;1.20;;;;;;;;;;5044689;28;20489;-81
2022/06/28 14:25:26;;;;;;;1.70;0.90;;;;;;;;;;5029209;28;20461;-81
2022/06/28 14:27:53;;;;;;;1.87;1.00;;;;;;;;;;5029708;28;20461;-80
2022/06/28 14:30:20;;;;;;;1.30;0.80;;;;;;;;;;5037905;28;20465;-81
2022/06/28 14:32:47;;;;;;;2.47;1.10;;;;;;;;;;5051164;28;20512;-81
2022/06/28 14:35:14;;;;;;;1.80;1.07;;;;;;;;;;5053599;28;20450;-82
2022/06/28 14:37:41;;;;;;;2.10;1.27;;;;;;;;;;5042061;28;20508;-83
2022/06/28 14:40:09;;;;;;;2.70;0.90;;;;;;;;;;5045047;28;20845;-80
2022/06/28 14:42:38;;;;;;;3.40;0.90;;;;;;;;;;5047563;28;20469;-82
2022/06/28 14:45:08;;;;;;;2.00;0.97;;;;;;;;;;5052937;28;20460;-82
2022/06/28 14:47:36;;;;;;;1.53;1.10;;;;;;;;;;5047990;28;21061;-81
2022/06/28 14:50:03;;;;;;;2.30;0.90;;;;;;;;;;5053272;28;20484;-83
2022/06/28 14:52:30;;;;;;;1.23;0.70;;;;;;;;;;5044853;28;20464;-81
2022/06/28 14:54:57;;;;;;;2.30;0.83;;;;;;;;;;5050393;28;20465;-83